Darlington, New Jersey
Current Conditions -  °F | °C
As of 12:51 PM on Sunday 25 Jan 2015 (Local Time) from KTEB Reporting Station
Clear Clear  
Wind Chill: 33°   Ceiling: Unl
Heat Index: 41°   Visibility: 10mi
Dew Point: 14°   Wind: 15mph
Humidity: 33%   Direction: 290°WNW
Pressure: 29.77"   Gusts: 24mph
Location:  41.0594°N, 74.1457°W
Report Text: KTEB 251751Z 29013G21KT 10SM CLR 05/M10 A2977 RMK AO2 SLP082 60000 T00501100 10050 20011 53016 $
Loading
Personal Weather Stations






























Interactive Weather Map New forecast layout! Learn more

10-Day Weather Forecast

Advertisements
Track Severe Weather on mobile